Terminal Aerodrome Forecast
Issued by NWS Central Illinois

Home | Current Version | Previous Version | Text Only | Print | Product List | Glossary On
Versions: 1 2 3 4 5 6 7 8 9 10 11 12 13 14 15 16 17 18 19 20 21 22 23 24
579
FTUS43 KILX 241740
TAFSPI
TAF
KSPI 241740Z 2418/2518 20011G17KT P6SM SCT030 BKN250
     FM250100 21006KT P6SM VCTS SCT035CB BKN200
     FM250400 20005KT P6SM VCSH SCT040 BKN150
     FM250800 31004KT 6SM BR FEW045 BKN150
     FM251400 01006KT P6SM SCT045 BKN100=

USA.gov is the U.S. government's official web portal to all federal, state and local government web resources and services.